sensor_id;sensor_type;location;lat;lon;timestamp;P1;durP1;ratioP1;P2;durP2;ratioP2
77944;SDS011;67142;47.404;-1.384;2023-04-07T00:00:22;12.30;;;11.15;;
77944;SDS011;67142;47.404;-1.384;2023-04-07T00:02:48;13.32;;;11.32;;
77944;SDS011;67142;47.404;-1.384;2023-04-07T00:05:14;14.57;;;11.88;;
77944;SDS011;67142;47.404;-1.384;2023-04-07T00:07:40;12.17;;;10.87;;
77944;SDS011;67142;47.404;-1.384;2023-04-07T00:10:06;15.80;;;11.63;;
77944;SDS011;67142;47.404;-1.384;2023-04-07T00:12:33;13.63;;;11.77;;
77944;SDS011;67142;47.404;-1.384;2023-04-07T00:14:59;13.10;;;11.40;;
77944;SDS011;67142;47.404;-1.384;2023-04-07T00:17:25;12.90;;;11.60;;
77944;SDS011;67142;47.404;-1.384;2023-04-07T00:19:51;13.03;;;11.40;;
77944;SDS011;67142;47.404;-1.384;2023-04-07T00:22:17;12.30;;;11.10;;
77944;SDS011;67142;47.404;-1.384;2023-04-07T00:24:43;12.50;;;11.30;;
77944;SDS011;67142;47.404;-1.384;2023-04-07T00:27:09;15.82;;;11.20;;
77944;SDS011;67142;47.404;-1.384;2023-04-07T00:29:35;13.63;;;11.43;;
77944;SDS011;67142;47.404;-1.384;2023-04-07T00:32:01;12.87;;;11.57;;
77944;SDS011;67142;47.404;-1.384;2023-04-07T00:34:27;14.13;;;11.93;;
77944;SDS011;67142;47.404;-1.384;2023-04-07T00:36:53;13.48;;;11.73;;
77944;SDS011;67142;47.404;-1.384;2023-04-07T00:39:20;13.80;;;11.93;;
77944;SDS011;67142;47.404;-1.384;2023-04-07T00:41:46;13.55;;;11.65;;
77944;SDS011;67142;47.404;-1.384;2023-04-07T00:44:13;14.27;;;11.30;;
77944;SDS011;67142;47.404;-1.384;2023-04-07T00:46:39;12.82;;;11.45;;
77944;SDS011;67142;47.404;-1.384;2023-04-07T00:49:06;12.82;;;11.55;;
77944;SDS011;67142;47.404;-1.384;2023-04-07T00:51:32;14.02;;;12.30;;
77944;SDS011;67142;47.404;-1.384;2023-04-07T00:53:59;13.23;;;11.77;;
77944;SDS011;67142;47.404;-1.384;2023-04-07T00:56:26;13.57;;;11.60;;
77944;SDS011;67142;47.404;-1.384;2023-04-07T00:58:52;13.10;;;11.90;;
77944;SDS011;67142;47.404;-1.384;2023-04-07T01:01:19;13.98;;;11.90;;
77944;SDS011;67142;47.404;-1.384;2023-04-07T01:06:13;15.43;;;11.40;;
77944;SDS011;67142;47.404;-1.384;2023-04-07T01:09:24;12.55;;;11.35;;
77944;SDS011;67142;47.404;-1.384;2023-04-07T01:11:31;14.57;;;11.82;;
77944;SDS011;67142;47.404;-1.384;2023-04-07T01:14:00;13.75;;;12.07;;
77944;SDS011;67142;47.404;-1.384;2023-04-07T01:16:29;13.00;;;11.60;;
77944;SDS011;67142;47.404;-1.384;2023-04-07T01:19:12;13.57;;;12.18;;
77944;SDS011;67142;47.404;-1.384;2023-04-07T01:21:39;14.27;;;12.23;;
77944;SDS011;67142;47.404;-1.384;2023-04-07T01:26:35;12.65;;;11.35;;
77944;SDS011;67142;47.404;-1.384;2023-04-07T01:31:46;13.52;;;12.13;;
77944;SDS011;67142;47.404;-1.384;2023-04-07T01:34:13;13.52;;;11.55;;
77944;SDS011;67142;47.404;-1.384;2023-04-07T01:36:40;12.70;;;11.40;;
77944;SDS011;67142;47.404;-1.384;2023-04-07T01:39:06;14.30;;;12.02;;
77944;SDS011;67142;47.404;-1.384;2023-04-07T01:41:33;12.50;;;11.20;;
77944;SDS011;67142;47.404;-1.384;2023-04-07T01:43:59;12.43;;;11.10;;
77944;SDS011;67142;47.404;-1.384;2023-04-07T01:46:26;12.88;;;11.73;;
77944;SDS011;67142;47.404;-1.384;2023-04-07T01:48:53;18.35;;;12.90;;
77944;SDS011;67142;47.404;-1.384;2023-04-07T01:51:20;13.48;;;12.20;;
77944;SDS011;67142;47.404;-1.384;2023-04-07T01:53:47;14.30;;;12.57;;
77944;SDS011;67142;47.404;-1.384;2023-04-07T01:56:13;14.52;;;12.98;;
77944;SDS011;67142;47.404;-1.384;2023-04-07T01:58:39;17.60;;;12.90;;
77944;SDS011;67142;47.404;-1.384;2023-04-07T02:01:05;19.20;;;13.18;;
77944;SDS011;67142;47.404;-1.384;2023-04-07T02:03:37;14.02;;;12.45;;
77944;SDS011;67142;47.404;-1.384;2023-04-07T02:06:05;15.93;;;12.00;;
77944;SDS011;67142;47.404;-1.384;2023-04-07T02:08:32;17.27;;;12.02;;
77944;SDS011;67142;47.404;-1.384;2023-04-07T02:10:58;19.42;;;12.70;;
77944;SDS011;67142;47.404;-1.384;2023-04-07T02:13:27;16.35;;;11.98;;
77944;SDS011;67142;47.404;-1.384;2023-04-07T02:15:54;15.13;;;12.27;;
77944;SDS011;67142;47.404;-1.384;2023-04-07T02:18:21;14.82;;;11.98;;
77944;SDS011;67142;47.404;-1.384;2023-04-07T02:20:47;15.77;;;11.93;;
77944;SDS011;67142;47.404;-1.384;2023-04-07T02:23:15;14.40;;;11.77;;
77944;SDS011;67142;47.404;-1.384;2023-04-07T02:25:41;15.32;;;11.80;;
77944;SDS011;67142;47.404;-1.384;2023-04-07T02:28:07;14.65;;;11.82;;
77944;SDS011;67142;47.404;-1.384;2023-04-07T02:30:33;13.30;;;11.30;;
77944;SDS011;67142;47.404;-1.384;2023-04-07T02:33:00;12.82;;;11.50;;
77944;SDS011;67142;47.404;-1.384;2023-04-07T02:35:26;13.65;;;12.20;;
77944;SDS011;67142;47.404;-1.384;2023-04-07T02:37:52;15.18;;;11.68;;
77944;SDS011;67142;47.404;-1.384;2023-04-07T02:40:18;13.55;;;11.80;;
77944;SDS011;67142;47.404;-1.384;2023-04-07T02:42:44;14.88;;;11.63;;
77944;SDS011;67142;47.404;-1.384;2023-04-07T02:45:11;13.20;;;11.88;;
77944;SDS011;67142;47.404;-1.384;2023-04-07T02:47:37;12.80;;;11.60;;
77944;SDS011;67142;47.404;-1.384;2023-04-07T02:50:03;12.70;;;11.57;;
77944;SDS011;67142;47.404;-1.384;2023-04-07T02:52:30;12.77;;;11.43;;
77944;SDS011;67142;47.404;-1.384;2023-04-07T02:54:56;12.38;;;11.07;;
77944;SDS011;67142;47.404;-1.384;2023-04-07T02:57:22;14.88;;;11.57;;
77944;SDS011;67142;47.404;-1.384;2023-04-07T02:59:48;15.30;;;12.15;;
77944;SDS011;67142;47.404;-1.384;2023-04-07T03:02:14;16.00;;;11.77;;
77944;SDS011;67142;47.404;-1.384;2023-04-07T03:04:40;12.73;;;11.48;;
77944;SDS011;67142;47.404;-1.384;2023-04-07T03:07:06;13.25;;;11.93;;
77944;SDS011;67142;47.404;-1.384;2023-04-07T03:09:32;13.75;;;11.80;;
77944;SDS011;67142;47.404;-1.384;2023-04-07T03:11:59;14.20;;;11.50;;
77944;SDS011;67142;47.404;-1.384;2023-04-07T03:14:26;63.97;;;14.10;;
77944;SDS011;67142;47.404;-1.384;2023-04-07T03:16:52;121.72;;;15.02;;
77944;SDS011;67142;47.404;-1.384;2023-04-07T03:19:18;28.42;;;12.85;;
77944;SDS011;67142;47.404;-1.384;2023-04-07T03:21:44;13.70;;;12.45;;
77944;SDS011;67142;47.404;-1.384;2023-04-07T03:24:10;12.98;;;11.45;;
77944;SDS011;67142;47.404;-1.384;2023-04-07T03:26:36;15.30;;;12.27;;
77944;SDS011;67142;47.404;-1.384;2023-04-07T03:29:02;13.30;;;11.88;;
77944;SDS011;67142;47.404;-1.384;2023-04-07T03:31:28;13.13;;;11.70;;
77944;SDS011;67142;47.404;-1.384;2023-04-07T03:33:54;13.30;;;11.90;;
77944;SDS011;67142;47.404;-1.384;2023-04-07T03:36:20;13.10;;;11.75;;
77944;SDS011;67142;47.404;-1.384;2023-04-07T03:38:48;13.18;;;11.93;;
77944;SDS011;67142;47.404;-1.384;2023-04-07T03:41:14;12.63;;;11.35;;
77944;SDS011;67142;47.404;-1.384;2023-04-07T03:43:40;13.13;;;11.70;;
77944;SDS011;67142;47.404;-1.384;2023-04-07T03:46:06;13.32;;;11.77;;
77944;SDS011;67142;47.404;-1.384;2023-04-07T03:48:32;13.05;;;11.75;;
77944;SDS011;67142;47.404;-1.384;2023-04-07T03:50:58;13.10;;;11.80;;
77944;SDS011;67142;47.404;-1.384;2023-04-07T03:53:24;14.90;;;12.07;;
77944;SDS011;67142;47.404;-1.384;2023-04-07T03:55:51;13.63;;;12.43;;
77944;SDS011;67142;47.404;-1.384;2023-04-07T03:58:17;12.95;;;11.63;;
77944;SDS011;67142;47.404;-1.384;2023-04-07T04:00:43;13.35;;;11.95;;
77944;SDS011;67142;47.404;-1.384;2023-04-07T04:03:09;14.20;;;11.38;;
77944;SDS011;67142;47.404;-1.384;2023-04-07T04:05:35;12.60;;;11.50;;
77944;SDS011;67142;47.404;-1.384;2023-04-07T04:08:01;12.43;;;11.40;;
77944;SDS011;67142;47.404;-1.384;2023-04-07T04:10:27;12.33;;;11.00;;
77944;SDS011;67142;47.404;-1.384;2023-04-07T04:12:53;11.65;;;10.55;;
77944;SDS011;67142;47.404;-1.384;2023-04-07T04:15:19;13.88;;;10.93;;
77944;SDS011;67142;47.404;-1.384;2023-04-07T04:17:45;13.18;;;11.77;;
77944;SDS011;67142;47.404;-1.384;2023-04-07T04:20:11;14.63;;;10.80;;
77944;SDS011;67142;47.404;-1.384;2023-04-07T04:22:37;12.38;;;11.32;;
77944;SDS011;67142;47.404;-1.384;2023-04-07T04:25:03;12.75;;;11.52;;
77944;SDS011;67142;47.404;-1.384;2023-04-07T04:27:30;12.30;;;11.15;;
77944;SDS011;67142;47.404;-1.384;2023-04-07T04:29:56;11.70;;;10.75;;
77944;SDS011;67142;47.404;-1.384;2023-04-07T04:32:22;12.82;;;11.13;;
77944;SDS011;67142;47.404;-1.384;2023-04-07T04:34:48;12.00;;;11.00;;
77944;SDS011;67142;47.404;-1.384;2023-04-07T04:37:14;11.48;;;10.48;;
77944;SDS011;67142;47.404;-1.384;2023-04-07T04:39:40;11.13;;;10.23;;
77944;SDS011;67142;47.404;-1.384;2023-04-07T04:42:06;11.68;;;10.65;;
77944;SDS011;67142;47.404;-1.384;2023-04-07T04:44:32;12.85;;;10.90;;
77944;SDS011;67142;47.404;-1.384;2023-04-07T04:46:58;12.43;;;11.25;;
77944;SDS011;67142;47.404;-1.384;2023-04-07T04:49:24;12.25;;;11.25;;
77944;SDS011;67142;47.404;-1.384;2023-04-07T04:51:50;12.02;;;10.93;;
77944;SDS011;67142;47.404;-1.384;2023-04-07T04:54:17;12.07;;;10.93;;
77944;SDS011;67142;47.404;-1.384;2023-04-07T04:56:43;12.43;;;11.10;;
77944;SDS011;67142;47.404;-1.384;2023-04-07T04:59:09;12.10;;;11.00;;
77944;SDS011;67142;47.404;-1.384;2023-04-07T05:01:35;12.57;;;11.38;;
77944;SDS011;67142;47.404;-1.384;2023-04-07T05:04:01;12.90;;;11.80;;
77944;SDS011;67142;47.404;-1.384;2023-04-07T05:06:27;13.13;;;11.77;;
77944;SDS011;67142;47.404;-1.384;2023-04-07T05:08:53;13.18;;;11.95;;
77944;SDS011;67142;47.404;-1.384;2023-04-07T05:11:19;13.73;;;12.20;;
77944;SDS011;67142;47.404;-1.384;2023-04-07T05:13:46;14.35;;;12.77;;
77944;SDS011;67142;47.404;-1.384;2023-04-07T05:16:12;16.42;;;12.88;;
77944;SDS011;67142;47.404;-1.384;2023-04-07T05:18:38;13.93;;;12.35;;
77944;SDS011;67142;47.404;-1.384;2023-04-07T05:21:04;22.17;;;13.10;;
77944;SDS011;67142;47.404;-1.384;2023-04-07T05:23:30;31.47;;;13.17;;
77944;SDS011;67142;47.404;-1.384;2023-04-07T05:25:56;47.75;;;14.13;;
77944;SDS011;67142;47.404;-1.384;2023-04-07T05:28:22;60.78;;;15.52;;
77944;SDS011;67142;47.404;-1.384;2023-04-07T05:30:49;44.65;;;13.68;;
77944;SDS011;67142;47.404;-1.384;2023-04-07T05:33:15;47.88;;;14.80;;
77944;SDS011;67142;47.404;-1.384;2023-04-07T05:35:43;36.27;;;13.80;;
77944;SDS011;67142;47.404;-1.384;2023-04-07T05:38:09;71.78;;;15.02;;
77944;SDS011;67142;47.404;-1.384;2023-04-07T05:40:38;49.92;;;14.30;;
77944;SDS011;67142;47.404;-1.384;2023-04-07T05:43:04;48.00;;;13.55;;
77944;SDS011;67142;47.404;-1.384;2023-04-07T05:45:30;60.35;;;14.55;;
77944;SDS011;67142;47.404;-1.384;2023-04-07T05:47:56;73.13;;;16.02;;
77944;SDS011;67142;47.404;-1.384;2023-04-07T05:50:22;38.55;;;14.52;;
77944;SDS011;67142;47.404;-1.384;2023-04-07T05:52:48;50.45;;;14.02;;
77944;SDS011;67142;47.404;-1.384;2023-04-07T05:55:14;37.88;;;13.88;;
77944;SDS011;67142;47.404;-1.384;2023-04-07T05:57:40;29.98;;;12.80;;
77944;SDS011;67142;47.404;-1.384;2023-04-07T06:00:07;23.00;;;12.23;;
77944;SDS011;67142;47.404;-1.384;2023-04-07T06:02:33;51.30;;;14.40;;
77944;SDS011;67142;47.404;-1.384;2023-04-07T06:04:59;25.15;;;12.55;;
77944;SDS011;67142;47.404;-1.384;2023-04-07T06:07:25;35.30;;;12.93;;
77944;SDS011;67142;47.404;-1.384;2023-04-07T06:09:51;30.70;;;13.93;;
77944;SDS011;67142;47.404;-1.384;2023-04-07T06:12:17;22.55;;;12.70;;
77944;SDS011;67142;47.404;-1.384;2023-04-07T06:14:45;18.08;;;12.93;;
77944;SDS011;67142;47.404;-1.384;2023-04-07T06:17:11;28.77;;;12.68;;
77944;SDS011;67142;47.404;-1.384;2023-04-07T06:19:37;31.17;;;12.95;;
77944;SDS011;67142;47.404;-1.384;2023-04-07T06:22:03;65.53;;;14.10;;
77944;SDS011;67142;47.404;-1.384;2023-04-07T06:24:29;30.63;;;13.47;;
77944;SDS011;67142;47.404;-1.384;2023-04-07T06:26:55;51.42;;;13.48;;
77944;SDS011;67142;47.404;-1.384;2023-04-07T06:29:22;58.30;;;12.98;;
77944;SDS011;67142;47.404;-1.384;2023-04-07T06:31:48;28.35;;;12.60;;
77944;SDS011;67142;47.404;-1.384;2023-04-07T06:34:14;26.90;;;12.13;;
77944;SDS011;67142;47.404;-1.384;2023-04-07T06:36:40;24.83;;;13.02;;
77944;SDS011;67142;47.404;-1.384;2023-04-07T06:39:06;43.00;;;13.10;;
77944;SDS011;67142;47.404;-1.384;2023-04-07T06:41:33;33.38;;;13.38;;
77944;SDS011;67142;47.404;-1.384;2023-04-07T06:43:59;17.92;;;13.10;;
77944;SDS011;67142;47.404;-1.384;2023-04-07T06:46:25;52.08;;;13.18;;
77944;SDS011;67142;47.404;-1.384;2023-04-07T06:48:51;36.60;;;14.45;;
77944;SDS011;67142;47.404;-1.384;2023-04-07T06:51:17;52.05;;;14.35;;
77944;SDS011;67142;47.404;-1.384;2023-04-07T06:53:43;37.42;;;14.27;;
77944;SDS011;67142;47.404;-1.384;2023-04-07T06:56:10;29.63;;;13.05;;
77944;SDS011;67142;47.404;-1.384;2023-04-07T06:58:36;51.47;;;14.30;;
77944;SDS011;67142;47.404;-1.384;2023-04-07T07:01:02;45.17;;;14.45;;
77944;SDS011;67142;47.404;-1.384;2023-04-07T07:03:29;113.60;;;15.95;;
77944;SDS011;67142;47.404;-1.384;2023-04-07T07:05:56;30.42;;;14.00;;
77944;SDS011;67142;47.404;-1.384;2023-04-07T07:08:22;60.88;;;14.35;;
77944;SDS011;67142;47.404;-1.384;2023-04-07T07:10:48;40.25;;;14.20;;
77944;SDS011;67142;47.404;-1.384;2023-04-07T07:13:14;68.93;;;15.48;;
77944;SDS011;67142;47.404;-1.384;2023-04-07T07:15:40;70.07;;;15.52;;
77944;SDS011;67142;47.404;-1.384;2023-04-07T07:18:06;32.58;;;14.15;;
77944;SDS011;67142;47.404;-1.384;2023-04-07T07:20:32;49.13;;;15.40;;
77944;SDS011;67142;47.404;-1.384;2023-04-07T07:22:58;42.33;;;14.27;;
77944;SDS011;67142;47.404;-1.384;2023-04-07T07:25:24;31.52;;;13.98;;
77944;SDS011;67142;47.404;-1.384;2023-04-07T07:27:51;39.53;;;13.75;;
77944;SDS011;67142;47.404;-1.384;2023-04-07T07:30:18;46.92;;;15.10;;
77944;SDS011;67142;47.404;-1.384;2023-04-07T07:32:44;31.15;;;13.93;;
77944;SDS011;67142;47.404;-1.384;2023-04-07T07:35:10;45.15;;;14.27;;
77944;SDS011;67142;47.404;-1.384;2023-04-07T07:37:36;29.87;;;14.37;;
77944;SDS011;67142;47.404;-1.384;2023-04-07T07:40:02;17.88;;;13.82;;
77944;SDS011;67142;47.404;-1.384;2023-04-07T07:42:28;31.35;;;14.50;;
77944;SDS011;67142;47.404;-1.384;2023-04-07T07:44:55;40.58;;;14.80;;
77944;SDS011;67142;47.404;-1.384;2023-04-07T07:47:21;48.28;;;14.88;;
77944;SDS011;67142;47.404;-1.384;2023-04-07T07:49:47;40.95;;;14.60;;
77944;SDS011;67142;47.404;-1.384;2023-04-07T07:52:14;32.35;;;14.40;;
77944;SDS011;67142;47.404;-1.384;2023-04-07T07:54:40;31.98;;;14.30;;
77944;SDS011;67142;47.404;-1.384;2023-04-07T07:57:06;29.83;;;14.07;;
77944;SDS011;67142;47.404;-1.384;2023-04-07T07:59:32;29.05;;;13.60;;
77944;SDS011;67142;47.404;-1.384;2023-04-07T08:01:58;27.05;;;13.80;;
77944;SDS011;67142;47.404;-1.384;2023-04-07T08:04:24;26.38;;;13.88;;
77944;SDS011;67142;47.404;-1.384;2023-04-07T08:06:50;26.48;;;13.93;;
77944;SDS011;67142;47.404;-1.384;2023-04-07T08:09:17;14.57;;;12.95;;
77944;SDS011;67142;47.404;-1.384;2023-04-07T08:11:44;17.50;;;13.27;;
77944;SDS011;67142;47.404;-1.384;2023-04-07T08:14:12;15.70;;;14.02;;
77944;SDS011;67142;47.404;-1.384;2023-04-07T08:16:38;16.50;;;14.00;;
77944;SDS011;67142;47.404;-1.384;2023-04-07T08:19:04;14.60;;;13.18;;
77944;SDS011;67142;47.404;-1.384;2023-04-07T08:21:30;15.10;;;13.80;;
77944;SDS011;67142;47.404;-1.384;2023-04-07T08:23:56;15.35;;;14.05;;
77944;SDS011;67142;47.404;-1.384;2023-04-07T08:26:22;15.00;;;13.70;;
77944;SDS011;67142;47.404;-1.384;2023-04-07T08:28:49;16.35;;;14.85;;
77944;SDS011;67142;47.404;-1.384;2023-04-07T08:31:15;15.85;;;14.25;;
77944;SDS011;67142;47.404;-1.384;2023-04-07T08:33:41;16.15;;;14.60;;
77944;SDS011;67142;47.404;-1.384;2023-04-07T08:36:07;15.95;;;14.43;;
77944;SDS011;67142;47.404;-1.384;2023-04-07T08:38:33;16.57;;;14.87;;
77944;SDS011;67142;47.404;-1.384;2023-04-07T08:41:01;15.60;;;13.98;;
77944;SDS011;67142;47.404;-1.384;2023-04-07T08:43:28;16.33;;;14.63;;
77944;SDS011;67142;47.404;-1.384;2023-04-07T08:45:55;15.32;;;13.93;;
77944;SDS011;67142;47.404;-1.384;2023-04-07T08:48:22;15.15;;;13.93;;
77944;SDS011;67142;47.404;-1.384;2023-04-07T08:50:51;15.93;;;14.52;;
77944;SDS011;67142;47.404;-1.384;2023-04-07T08:53:17;16.38;;;14.90;;
77944;SDS011;67142;47.404;-1.384;2023-04-07T08:55:47;16.77;;;15.27;;
77944;SDS011;67142;47.404;-1.384;2023-04-07T08:58:13;17.55;;;15.77;;
77944;SDS011;67142;47.404;-1.384;2023-04-07T09:00:42;17.38;;;15.68;;
77944;SDS011;67142;47.404;-1.384;2023-04-07T09:03:10;18.13;;;16.13;;
77944;SDS011;67142;47.404;-1.384;2023-04-07T09:05:36;17.92;;;16.20;;
77944;SDS011;67142;47.404;-1.384;2023-04-07T09:08:03;17.85;;;16.10;;
77944;SDS011;67142;47.404;-1.384;2023-04-07T09:10:29;19.33;;;16.00;;
77944;SDS011;67142;47.404;-1.384;2023-04-07T09:12:56;17.35;;;15.75;;
77944;SDS011;67142;47.404;-1.384;2023-04-07T09:15:23;17.20;;;15.55;;
77944;SDS011;67142;47.404;-1.384;2023-04-07T09:17:49;16.63;;;15.13;;
77944;SDS011;67142;47.404;-1.384;2023-04-07T09:20:15;16.98;;;15.60;;
77944;SDS011;67142;47.404;-1.384;2023-04-07T09:22:42;18.45;;;16.85;;
77944;SDS011;67142;47.404;-1.384;2023-04-07T09:25:15;17.92;;;16.38;;
77944;SDS011;67142;47.404;-1.384;2023-04-07T09:27:55;18.77;;;17.05;;
77944;SDS011;67142;47.404;-1.384;2023-04-07T09:30:21;19.10;;;17.40;;
77944;SDS011;67142;47.404;-1.384;2023-04-07T09:32:47;18.98;;;17.27;;
77944;SDS011;67142;47.404;-1.384;2023-04-07T09:35:13;19.38;;;17.67;;
77944;SDS011;67142;47.404;-1.384;2023-04-07T09:37:39;18.58;;;16.08;;
77944;SDS011;67142;47.404;-1.384;2023-04-07T09:40:06;18.77;;;16.98;;
77944;SDS011;67142;47.404;-1.384;2023-04-07T09:42:33;19.20;;;16.75;;
77944;SDS011;67142;47.404;-1.384;2023-04-07T09:45:01;19.52;;;17.73;;
77944;SDS011;67142;47.404;-1.384;2023-04-07T09:47:28;18.55;;;16.92;;
77944;SDS011;67142;47.404;-1.384;2023-04-07T09:49:54;18.25;;;16.55;;
77944;SDS011;67142;47.404;-1.384;2023-04-07T09:52:21;18.38;;;16.83;;
77944;SDS011;67142;47.404;-1.384;2023-04-07T09:54:48;19.00;;;17.30;;
77944;SDS011;67142;47.404;-1.384;2023-04-07T09:57:14;18.30;;;16.60;;
77944;SDS011;67142;47.404;-1.384;2023-04-07T09:59:43;18.08;;;16.48;;
77944;SDS011;67142;47.404;-1.384;2023-04-07T10:02:09;18.08;;;16.58;;
77944;SDS011;67142;47.404;-1.384;2023-04-07T10:04:35;17.98;;;16.27;;
77944;SDS011;67142;47.404;-1.384;2023-04-07T10:07:02;18.25;;;16.50;;
77944;SDS011;67142;47.404;-1.384;2023-04-07T10:09:28;17.15;;;15.65;;
77944;SDS011;67142;47.404;-1.384;2023-04-07T10:11:55;17.58;;;16.00;;
77944;SDS011;67142;47.404;-1.384;2023-04-07T10:14:25;18.58;;;16.88;;
77944;SDS011;67142;47.404;-1.384;2023-04-07T10:16:51;18.80;;;17.20;;
77944;SDS011;67142;47.404;-1.384;2023-04-07T10:19:18;19.83;;;18.23;;
77944;SDS011;67142;47.404;-1.384;2023-04-07T10:21:44;18.27;;;16.55;;
77944;SDS011;67142;47.404;-1.384;2023-04-07T10:26:47;18.52;;;17.00;;
77944;SDS011;67142;47.404;-1.384;2023-04-07T10:29:16;18.90;;;17.00;;
77944;SDS011;67142;47.404;-1.384;2023-04-07T10:31:43;18.80;;;16.77;;
77944;SDS011;67142;47.404;-1.384;2023-04-07T10:34:10;17.85;;;16.17;;
77944;SDS011;67142;47.404;-1.384;2023-04-07T10:37:06;16.15;;;14.82;;
77944;SDS011;67142;47.404;-1.384;2023-04-07T10:39:22;18.13;;;15.70;;
77944;SDS011;67142;47.404;-1.384;2023-04-07T10:41:48;16.95;;;15.30;;
77944;SDS011;67142;47.404;-1.384;2023-04-07T10:47:01;17.38;;;15.70;;
77944;SDS011;67142;47.404;-1.384;2023-04-07T10:49:31;17.80;;;16.10;;
77944;SDS011;67142;47.404;-1.384;2023-04-07T10:54:36;17.55;;;15.95;;
77944;SDS011;67142;47.404;-1.384;2023-04-07T10:59:32;17.10;;;15.60;;
77944;SDS011;67142;47.404;-1.384;2023-04-07T11:04:40;17.67;;;16.08;;
77944;SDS011;67142;47.404;-1.384;2023-04-07T11:07:07;17.23;;;15.60;;
77944;SDS011;67142;47.404;-1.384;2023-04-07T11:09:34;18.37;;;16.67;;
77944;SDS011;67142;47.404;-1.384;2023-04-07T11:12:00;17.48;;;15.93;;
77944;SDS011;67142;47.404;-1.384;2023-04-07T11:14:27;18.63;;;16.95;;
77944;SDS011;67142;47.404;-1.384;2023-04-07T11:16:53;19.13;;;17.52;;
77944;SDS011;67142;47.404;-1.384;2023-04-07T11:19:19;19.13;;;17.52;;
77944;SDS011;67142;47.404;-1.384;2023-04-07T11:21:45;18.47;;;16.83;;
77944;SDS011;67142;47.404;-1.384;2023-04-07T11:26:56;17.67;;;16.27;;
77944;SDS011;67142;47.404;-1.384;2023-04-07T11:29:28;17.10;;;15.60;;
77944;SDS011;67142;47.404;-1.384;2023-04-07T11:31:54;16.42;;;14.93;;
77944;SDS011;67142;47.404;-1.384;2023-04-07T11:34:23;16.07;;;14.67;;
77944;SDS011;67142;47.404;-1.384;2023-04-07T11:36:53;17.10;;;15.60;;
77944;SDS011;67142;47.404;-1.384;2023-04-07T11:39:23;16.80;;;15.20;;
77944;SDS011;67142;47.404;-1.384;2023-04-07T11:41:52;16.30;;;14.90;;
77944;SDS011;67142;47.404;-1.384;2023-04-07T11:44:18;19.63;;;17.90;;
77944;SDS011;67142;47.404;-1.384;2023-04-07T11:47:17;18.60;;;16.90;;
77944;SDS011;67142;47.404;-1.384;2023-04-07T11:49:43;18.25;;;16.83;;
77944;SDS011;67142;47.404;-1.384;2023-04-07T11:52:10;18.98;;;17.60;;
77944;SDS011;67142;47.404;-1.384;2023-04-07T11:54:43;20.00;;;18.60;;
77944;SDS011;67142;47.404;-1.384;2023-04-07T11:57:11;21.00;;;19.50;;
77944;SDS011;67142;47.404;-1.384;2023-04-07T11:59:37;19.40;;;18.10;;
77944;SDS011;67142;47.404;-1.384;2023-04-07T12:02:03;19.08;;;17.67;;
77944;SDS011;67142;47.404;-1.384;2023-04-07T12:04:30;18.80;;;17.50;;
77944;SDS011;67142;47.404;-1.384;2023-04-07T12:07:07;19.83;;;18.48;;
77944;SDS011;67142;47.404;-1.384;2023-04-07T12:09:33;19.73;;;18.30;;
77944;SDS011;67142;47.404;-1.384;2023-04-07T12:12:00;20.00;;;18.50;;
77944;SDS011;67142;47.404;-1.384;2023-04-07T12:14:27;17.45;;;16.13;;
77944;SDS011;67142;47.404;-1.384;2023-04-07T12:16:53;20.20;;;18.80;;
77944;SDS011;67142;47.404;-1.384;2023-04-07T12:19:30;19.70;;;18.30;;
77944;SDS011;67142;47.404;-1.384;2023-04-07T12:21:59;16.45;;;15.20;;
77944;SDS011;67142;47.404;-1.384;2023-04-07T12:24:25;18.67;;;17.20;;
77944;SDS011;67142;47.404;-1.384;2023-04-07T12:26:52;19.25;;;17.75;;
77944;SDS011;67142;47.404;-1.384;2023-04-07T12:29:18;18.75;;;17.40;;
77944;SDS011;67142;47.404;-1.384;2023-04-07T12:31:44;19.08;;;17.67;;
77944;SDS011;67142;47.404;-1.384;2023-04-07T12:34:10;16.70;;;15.40;;
77944;SDS011;67142;47.404;-1.384;2023-04-07T12:36:36;18.40;;;16.90;;
77944;SDS011;67142;47.404;-1.384;2023-04-07T12:39:02;16.50;;;15.20;;
77944;SDS011;67142;47.404;-1.384;2023-04-07T12:41:29;16.35;;;14.98;;
77944;SDS011;67142;47.404;-1.384;2023-04-07T12:43:56;17.27;;;15.98;;
77944;SDS011;67142;47.404;-1.384;2023-04-07T12:46:22;17.20;;;15.87;;
77944;SDS011;67142;47.404;-1.384;2023-04-07T12:48:48;18.03;;;16.63;;
77944;SDS011;67142;47.404;-1.384;2023-04-07T12:51:15;18.38;;;17.02;;
77944;SDS011;67142;47.404;-1.384;2023-04-07T12:53:41;16.42;;;15.13;;
77944;SDS011;67142;47.404;-1.384;2023-04-07T12:56:07;16.75;;;15.45;;
77944;SDS011;67142;47.404;-1.384;2023-04-07T12:58:33;16.25;;;14.85;;
77944;SDS011;67142;47.404;-1.384;2023-04-07T13:00:59;16.43;;;15.13;;
77944;SDS011;67142;47.404;-1.384;2023-04-07T13:03:25;17.85;;;16.55;;
77944;SDS011;67142;47.404;-1.384;2023-04-07T13:05:51;18.17;;;16.88;;
77944;SDS011;67142;47.404;-1.384;2023-04-07T13:08:19;17.95;;;16.65;;
77944;SDS011;67142;47.404;-1.384;2023-04-07T13:10:45;17.33;;;16.02;;
77944;SDS011;67142;47.404;-1.384;2023-04-07T13:13:11;17.97;;;16.67;;
77944;SDS011;67142;47.404;-1.384;2023-04-07T13:15:37;17.88;;;16.55;;
77944;SDS011;67142;47.404;-1.384;2023-04-07T13:18:03;16.27;;;15.02;;
77944;SDS011;67142;47.404;-1.384;2023-04-07T13:20:30;16.52;;;15.23;;
77944;SDS011;67142;47.404;-1.384;2023-04-07T13:22:56;17.17;;;15.88;;
77944;SDS011;67142;47.404;-1.384;2023-04-07T13:25:22;16.00;;;14.70;;
77944;SDS011;67142;47.404;-1.384;2023-04-07T13:27:48;17.65;;;16.23;;
77944;SDS011;67142;47.404;-1.384;2023-04-07T13:30:15;17.38;;;16.08;;
77944;SDS011;67142;47.404;-1.384;2023-04-07T13:32:41;17.30;;;16.00;;
77944;SDS011;67142;47.404;-1.384;2023-04-07T13:35:07;17.73;;;16.45;;
77944;SDS011;67142;47.404;-1.384;2023-04-07T13:37:33;17.43;;;16.13;;
77944;SDS011;67142;47.404;-1.384;2023-04-07T13:39:59;18.48;;;17.13;;
77944;SDS011;67142;47.404;-1.384;2023-04-07T13:42:26;18.45;;;17.15;;
77944;SDS011;67142;47.404;-1.384;2023-04-07T13:44:52;18.08;;;16.77;;
77944;SDS011;67142;47.404;-1.384;2023-04-07T13:47:18;18.63;;;17.17;;
77944;SDS011;67142;47.404;-1.384;2023-04-07T13:49:46;17.77;;;16.50;;
77944;SDS011;67142;47.404;-1.384;2023-04-07T13:52:12;17.77;;;16.48;;
77944;SDS011;67142;47.404;-1.384;2023-04-07T13:54:38;19.55;;;18.25;;
77944;SDS011;67142;47.404;-1.384;2023-04-07T13:57:04;18.08;;;16.88;;
77944;SDS011;67142;47.404;-1.384;2023-04-07T13:59:30;18.63;;;17.23;;
77944;SDS011;67142;47.404;-1.384;2023-04-07T14:01:56;17.87;;;16.57;;
77944;SDS011;67142;47.404;-1.384;2023-04-07T14:04:22;17.50;;;16.20;;
77944;SDS011;67142;47.404;-1.384;2023-04-07T14:06:48;17.85;;;16.55;;
77944;SDS011;67142;47.404;-1.384;2023-04-07T14:09:14;18.23;;;16.88;;
77944;SDS011;67142;47.404;-1.384;2023-04-07T14:11:40;17.63;;;16.42;;
77944;SDS011;67142;47.404;-1.384;2023-04-07T14:14:06;18.37;;;17.07;;
77944;SDS011;67142;47.404;-1.384;2023-04-07T14:16:32;18.17;;;16.88;;
77944;SDS011;67142;47.404;-1.384;2023-04-07T14:18:58;18.40;;;17.10;;
77944;SDS011;67142;47.404;-1.384;2023-04-07T14:21:24;17.70;;;16.42;;
77944;SDS011;67142;47.404;-1.384;2023-04-07T14:23:53;17.48;;;16.27;;
77944;SDS011;67142;47.404;-1.384;2023-04-07T14:26:19;17.53;;;16.13;;
77944;SDS011;67142;47.404;-1.384;2023-04-07T14:28:46;18.63;;;17.33;;